createdAt,value
2022-12-12T00:00:51.471Z,14.05
2022-12-12T00:03:18.726Z,13.35
2022-12-12T00:05:45.667Z,12.93
2022-12-12T00:08:12.341Z,12.55
2022-12-12T00:10:39.168Z,12.68
2022-12-12T00:13:05.917Z,13.75
2022-12-12T00:15:33.003Z,13.13
2022-12-12T00:17:59.789Z,12.35
2022-12-12T00:20:26.519Z,13.07
2022-12-12T00:22:53.338Z,12.95
2022-12-12T00:25:20.081Z,13.85
2022-12-12T00:27:46.880Z,13.40
2022-12-12T00:30:13.738Z,12.60
2022-12-12T00:32:40.463Z,13.25
2022-12-12T00:35:07.651Z,13.60
2022-12-12T00:37:34.384Z,12.88
2022-12-12T00:40:01.252Z,12.52
2022-12-12T00:42:28.564Z,13.80
2022-12-12T00:44:55.285Z,13.38
2022-12-12T00:47:22.483Z,13.32
2022-12-12T00:49:49.245Z,11.48
2022-12-12T00:52:15.941Z,12.95
2022-12-12T00:54:42.656Z,13.02
2022-12-12T00:57:09.386Z,11.43
2022-12-12T00:59:36.213Z,12.55
2022-12-12T01:02:03.933Z,11.80
2022-12-12T01:04:30.893Z,12.65
2022-12-12T01:06:57.742Z,12.05
2022-12-12T01:09:24.482Z,12.18
2022-12-12T01:11:51.176Z,11.95
2022-12-12T01:14:17.933Z,13.05
2022-12-12T01:16:44.602Z,13.05
2022-12-12T01:19:11.254Z,12.27
2022-12-12T01:21:37.918Z,12.90
2022-12-12T01:24:04.938Z,13.57
2022-12-12T01:26:31.736Z,12.82
2022-12-12T01:28:58.630Z,12.07
2022-12-12T01:31:25.404Z,13.45
2022-12-12T01:33:52.230Z,11.88
2022-12-12T01:36:21.814Z,13.20
2022-12-12T01:38:50.164Z,11.63
2022-12-12T01:41:18.251Z,11.65
2022-12-12T01:43:45.366Z,12.75
2022-12-12T01:46:35.227Z,13.77
2022-12-12T01:49:13.750Z,12.52
2022-12-12T01:51:41.586Z,11.68
2022-12-12T01:54:13.773Z,11.82
2022-12-12T01:56:43.279Z,12.00
2022-12-12T01:59:13.662Z,12.63
2022-12-12T02:01:41.403Z,12.85
2022-12-12T02:04:09.653Z,13.30
2022-12-12T02:06:36.789Z,12.88
2022-12-12T02:09:09.364Z,12.93
2022-12-12T02:14:08.174Z,11.65
2022-12-12T02:16:44.662Z,11.98
2022-12-12T02:19:24.385Z,13.40
2022-12-12T02:21:59.334Z,12.43
2022-12-12T02:24:26.334Z,11.40
2022-12-12T02:27:21.873Z,12.18
2022-12-12T02:29:54.645Z,13.32
2022-12-12T02:32:27.177Z,11.70
2022-12-12T02:35:05.907Z,10.73
2022-12-12T02:37:41.326Z,11.55
2022-12-12T02:40:27.793Z,11.70
2022-12-12T02:43:56.129Z,12.07
2022-12-12T02:46:36.728Z,11.85
2022-12-12T02:49:08.746Z,12.25
2022-12-12T02:51:36.872Z,11.52
2022-12-12T02:54:05.280Z,12.25
2022-12-12T02:56:52.835Z,12.68
2022-12-12T02:59:37.079Z,11.80
2022-12-12T03:02:15.256Z,12.18
2022-12-12T03:05:25.206Z,11.90
2022-12-12T03:08:09.812Z,12.32
2022-12-12T03:11:06.061Z,12.75
2022-12-12T03:13:43.694Z,12.40
2022-12-12T03:16:13.390Z,12.02
2022-12-12T03:19:08.603Z,13.45
2022-12-12T03:21:38.201Z,13.20
2022-12-12T03:24:22.056Z,12.45
2022-12-12T03:26:54.775Z,11.77
2022-12-12T03:29:29.004Z,13.13
2022-12-12T03:32:05.086Z,12.43
2022-12-12T03:34:39.300Z,13.93
2022-12-12T03:37:15.502Z,12.10
2022-12-12T03:39:57.760Z,11.60
2022-12-12T03:42:34.875Z,11.95
2022-12-12T03:45:26.019Z,11.65
2022-12-12T03:47:58.633Z,12.57
2022-12-12T03:53:10.544Z,13.30
2022-12-12T03:58:38.882Z,13.40
2022-12-12T04:01:10.638Z,13.93
2022-12-12T04:03:52.031Z,12.93
2022-12-12T04:06:38.621Z,12.43
2022-12-12T04:09:33.308Z,12.85
2022-12-12T04:13:00.502Z,12.50
2022-12-12T04:15:53.016Z,14.45
2022-12-12T04:18:40.797Z,12.45
2022-12-12T04:21:40.373Z,12.80
2022-12-12T04:24:38.610Z,14.07
2022-12-12T04:27:12.211Z,12.35
2022-12-12T04:29:42.019Z,13.05
2022-12-12T04:32:38.225Z,12.27
2022-12-12T04:35:19.638Z,12.35
2022-12-12T04:37:50.521Z,13.55
2022-12-12T04:40:27.132Z,12.25
2022-12-12T04:42:58.035Z,13.13
2022-12-12T04:45:29.224Z,14.30
2022-12-12T04:47:57.312Z,13.75
2022-12-12T04:50:27.001Z,13.82
2022-12-12T04:52:56.705Z,12.93
2022-12-12T04:55:40.948Z,12.02
2022-12-12T04:58:08.673Z,12.57
2022-12-12T05:00:43.813Z,12.48
2022-12-12T05:03:33.182Z,12.95
2022-12-12T05:06:05.685Z,12.95
2022-12-12T05:08:47.290Z,13.60
2022-12-12T05:11:15.471Z,13.00
2022-12-12T05:13:43.145Z,13.15
2022-12-12T05:16:20.627Z,13.60
2022-12-12T05:18:47.611Z,13.55
2022-12-12T05:21:14.810Z,13.05
2022-12-12T05:23:41.654Z,14.65
2022-12-12T05:26:18.892Z,14.95
2022-12-12T05:28:45.566Z,14.35
2022-12-12T05:31:12.268Z,14.70
2022-12-12T05:33:39.077Z,14.40
2022-12-12T05:36:06.124Z,14.13
2022-12-12T05:38:32.798Z,14.68
2022-12-12T05:40:59.526Z,14.95
2022-12-12T05:43:26.289Z,14.90
2022-12-12T05:45:53.046Z,15.35
2022-12-12T05:48:24.358Z,16.35
2022-12-12T05:50:52.286Z,13.70
2022-12-12T05:53:19.818Z,13.93
2022-12-12T05:55:46.679Z,13.93
2022-12-12T05:58:13.433Z,14.35
2022-12-12T06:00:40.139Z,14.73
2022-12-12T06:03:06.899Z,14.68
2022-12-12T06:05:34.279Z,15.80
2022-12-12T06:08:00.978Z,14.80
2022-12-12T06:10:27.704Z,15.18
2022-12-12T06:12:54.388Z,14.70
2022-12-12T06:15:21.076Z,13.63
2022-12-12T06:17:47.970Z,14.82
2022-12-12T06:20:14.682Z,15.40
2022-12-12T06:22:42.277Z,14.98
2022-12-12T06:25:09.752Z,15.60
2022-12-12T06:27:36.946Z,14.77
2022-12-12T06:30:05.176Z,14.30
2022-12-12T06:32:31.894Z,14.57
2022-12-12T06:34:58.663Z,15.35
2022-12-12T06:37:25.317Z,14.75
2022-12-12T06:39:52.159Z,15.57
2022-12-12T06:42:18.890Z,16.70
2022-12-12T06:44:45.698Z,17.42
2022-12-12T06:47:12.395Z,15.95
2022-12-12T06:49:39.134Z,17.88
2022-12-12T06:52:05.882Z,16.25
2022-12-12T06:54:32.572Z,17.88
2022-12-12T06:56:59.279Z,17.27
2022-12-12T06:59:28.902Z,16.00
2022-12-12T07:01:56.789Z,17.45
2022-12-12T07:04:24.378Z,16.92
2022-12-12T07:06:51.480Z,16.42
2022-12-12T07:09:19.147Z,16.02
2022-12-12T07:11:45.861Z,16.23
2022-12-12T07:14:12.594Z,15.90
2022-12-12T07:16:39.366Z,17.27
2022-12-12T07:19:06.084Z,17.52
2022-12-12T07:21:32.928Z,15.48
2022-12-12T07:23:59.679Z,16.98
2022-12-12T07:26:26.388Z,16.58
2022-12-12T07:28:53.132Z,16.60
2022-12-12T07:31:22.822Z,17.77
2022-12-12T07:33:49.602Z,15.98
2022-12-12T07:36:17.333Z,17.27
2022-12-12T07:38:45.123Z,16.95
2022-12-12T07:41:15.212Z,16.30
2022-12-12T07:43:45.026Z,16.65
2022-12-12T07:46:20.045Z,15.45
2022-12-12T07:48:47.367Z,16.38
2022-12-12T07:51:14.968Z,14.07
2022-12-12T07:53:42.382Z,14.60
2022-12-12T07:56:11.337Z,16.15
2022-12-12T07:58:38.701Z,16.92
2022-12-12T08:01:26.398Z,16.10
2022-12-12T08:03:54.399Z,16.10
2022-12-12T08:06:23.094Z,16.35
2022-12-12T08:08:50.871Z,17.85
2022-12-12T08:11:20.272Z,16.35
2022-12-12T08:13:47.295Z,15.27
2022-12-12T08:16:18.022Z,15.57
2022-12-12T08:18:45.104Z,16.35
2022-12-12T08:21:13.651Z,17.65
2022-12-12T08:23:41.132Z,15.95
2022-12-12T08:26:10.448Z,17.17
2022-12-12T08:28:37.534Z,16.85
2022-12-12T08:31:04.539Z,16.98
2022-12-12T08:33:31.300Z,18.35
2022-12-12T08:35:57.981Z,15.68
2022-12-12T08:38:26.835Z,19.02
2022-12-12T08:40:53.484Z,17.65
2022-12-12T08:43:20.214Z,18.88
2022-12-12T08:45:47.840Z,18.23
2022-12-12T08:48:14.580Z,18.20
2022-12-12T08:50:42.465Z,18.35
2022-12-12T08:53:09.266Z,18.42
2022-12-12T08:55:36.183Z,16.85
2022-12-12T08:58:02.968Z,17.42
2022-12-12T09:00:29.721Z,16.92
2022-12-12T09:02:56.503Z,17.25
2022-12-12T09:05:23.212Z,15.70
2022-12-12T09:07:50.961Z,18.15
2022-12-12T09:10:17.917Z,18.10
2022-12-12T09:12:44.566Z,16.52
2022-12-12T09:15:11.993Z,18.33
2022-12-12T09:17:38.974Z,17.85
2022-12-12T09:20:06.148Z,17.95
2022-12-12T09:22:33.203Z,17.98
2022-12-12T09:25:00.286Z,18.05
2022-12-12T09:27:27.200Z,17.67
2022-12-12T09:29:53.875Z,21.17
2022-12-12T09:32:24.654Z,21.13
2022-12-12T09:34:51.829Z,18.73
2022-12-12T09:37:18.818Z,20.60
2022-12-12T09:39:45.518Z,20.88
2022-12-12T09:42:25.038Z,19.90
2022-12-12T09:44:55.595Z,20.27
2022-12-12T09:47:40.906Z,21.02
2022-12-12T09:50:32.395Z,22.00
2022-12-12T09:53:02.922Z,21.55
2022-12-12T09:55:38.759Z,20.90
2022-12-12T09:58:08.908Z,22.70
2022-12-12T10:00:40.837Z,22.75
2022-12-12T10:03:48.764Z,23.48
2022-12-12T10:09:42.008Z,21.60
2022-12-12T10:12:13.949Z,23.10
2022-12-12T10:14:57.843Z,26.17
2022-12-12T10:17:39.362Z,20.83
2022-12-12T10:20:37.669Z,22.50
2022-12-12T10:23:19.597Z,22.83
2022-12-12T10:26:06.900Z,22.57
2022-12-12T10:28:34.850Z,24.27
2022-12-12T10:31:13.364Z,23.98
2022-12-12T10:34:10.721Z,23.92
2022-12-12T10:37:11.866Z,24.52
2022-12-12T10:39:53.565Z,25.00
2022-12-12T10:42:31.874Z,24.45
2022-12-12T10:45:38.284Z,22.45
2022-12-12T10:48:05.573Z,24.30
2022-12-12T10:50:45.679Z,23.63
2022-12-12T10:53:13.042Z,23.52
2022-12-12T10:56:17.159Z,22.08
2022-12-12T10:58:51.307Z,22.90
2022-12-12T11:01:38.480Z,23.77
2022-12-12T11:04:08.437Z,23.08
2022-12-12T11:06:49.130Z,23.40
2022-12-12T11:09:22.756Z,23.17
2022-12-12T11:12:09.646Z,23.02
2022-12-12T11:14:44.962Z,22.88
2022-12-12T11:17:31.864Z,23.83
2022-12-12T11:20:00.486Z,22.15
2022-12-12T11:22:30.466Z,22.98
2022-12-12T11:24:57.502Z,24.42
2022-12-12T11:27:38.099Z,24.42
2022-12-12T11:30:22.757Z,25.13
2022-12-12T11:32:52.827Z,25.02
2022-12-12T11:35:22.370Z,24.35
2022-12-12T11:37:52.439Z,25.48
2022-12-12T11:40:34.359Z,26.00
2022-12-12T11:43:23.675Z,25.50
2022-12-12T11:46:13.398Z,25.00
2022-12-12T11:48:44.963Z,25.35
2022-12-12T11:51:11.785Z,22.83
2022-12-12T11:53:41.305Z,26.17
2022-12-12T11:56:26.147Z,25.58
2022-12-12T11:59:16.238Z,26.40
2022-12-12T12:01:59.169Z,25.38
2022-12-12T12:04:49.577Z,25.30
2022-12-12T12:07:56.691Z,24.90
2022-12-12T12:10:41.432Z,24.30
2022-12-12T12:13:17.222Z,25.30
2022-12-12T12:15:52.402Z,25.52
2022-12-12T12:18:30.970Z,25.40
2022-12-12T12:21:16.035Z,26.40
2022-12-12T12:24:03.682Z,25.25
2022-12-12T12:26:54.653Z,24.83
2022-12-12T12:29:35.874Z,24.13
2022-12-12T12:32:12.047Z,23.48
2022-12-12T12:35:07.833Z,23.65
2022-12-12T12:38:02.608Z,24.73
2022-12-12T12:41:01.335Z,22.70
2022-12-12T12:43:43.396Z,22.63
2022-12-12T12:46:17.147Z,23.17
2022-12-12T12:48:49.733Z,22.00
2022-12-12T12:51:22.992Z,22.98
2022-12-12T12:54:02.616Z,22.33
2022-12-12T12:56:32.805Z,20.60
2022-12-12T12:59:09.901Z,22.70
2022-12-12T13:01:38.964Z,22.10
2022-12-12T13:04:14.704Z,19.77
2022-12-12T13:07:05.733Z,21.08
2022-12-12T13:09:46.612Z,21.30
2022-12-12T13:12:38.539Z,19.52
2022-12-12T13:15:21.439Z,21.42
2022-12-12T13:20:22.984Z,19.52
2022-12-12T13:23:14.997Z,20.27
2022-12-12T13:25:52.774Z,20.05
2022-12-12T13:28:25.878Z,21.55
2022-12-12T13:31:26.649Z,18.98
2022-12-12T13:33:57.774Z,19.45
2022-12-12T13:36:30.326Z,20.30
2022-12-12T13:39:00.261Z,19.73
2022-12-12T13:41:27.123Z,18.27
2022-12-12T13:43:59.824Z,20.27
2022-12-12T13:48:56.891Z,18.48
2022-12-12T13:51:32.116Z,18.30
2022-12-12T13:54:12.667Z,18.90
2022-12-12T13:56:52.879Z,17.63
2022-12-12T13:59:22.327Z,19.27
2022-12-12T14:01:59.413Z,20.50
2022-12-12T14:04:39.675Z,20.10
2022-12-12T14:07:12.378Z,19.48
2022-12-12T14:12:21.389Z,19.40
2022-12-12T14:14:58.884Z,20.00
2022-12-12T14:17:28.971Z,19.10
2022-12-12T14:19:58.466Z,18.75
2022-12-12T14:22:37.237Z,17.58
2022-12-12T14:25:11.787Z,19.98
2022-12-12T14:27:50.194Z,20.10
2022-12-12T14:30:45.983Z,18.98
2022-12-12T14:33:59.346Z,18.33
2022-12-12T14:36:49.889Z,19.10
2022-12-12T14:39:22.403Z,18.67
2022-12-12T14:41:49.544Z,18.40
2022-12-12T14:44:36.616Z,18.48
2022-12-12T14:47:08.798Z,17.52
2022-12-12T14:49:35.507Z,17.88
2022-12-12T14:52:02.513Z,17.35
2022-12-12T14:54:31.112Z,17.45
2022-12-12T14:56:59.021Z,18.25
2022-12-12T14:59:38.339Z,18.20
2022-12-12T15:02:31.878Z,18.20
2022-12-12T15:05:05.037Z,18.35
2022-12-12T15:07:35.082Z,18.45
2022-12-12T15:10:02.148Z,16.45
2022-12-12T15:12:42.693Z,18.35
2022-12-12T15:15:27.444Z,16.98
2022-12-12T15:17:57.182Z,17.42
2022-12-12T15:20:27.998Z,17.08
2022-12-12T15:23:03.856Z,17.52
2022-12-12T15:25:33.279Z,18.52
2022-12-12T15:28:01.686Z,18.70
2022-12-12T15:30:36.999Z,18.65
2022-12-12T15:33:06.845Z,17.50
2022-12-12T15:35:34.134Z,16.85
2022-12-12T15:38:14.169Z,18.27
2022-12-12T15:40:43.049Z,17.05
2022-12-12T15:43:15.873Z,18.90
2022-12-12T15:45:47.654Z,19.50
2022-12-12T15:48:15.692Z,19.07
2022-12-12T15:50:42.543Z,20.80
2022-12-12T15:53:26.826Z,21.27
2022-12-12T15:56:04.966Z,20.88
2022-12-12T15:58:46.718Z,21.52
2022-12-12T16:01:21.752Z,19.55
2022-12-12T16:03:58.515Z,19.70
2022-12-12T16:06:30.974Z,19.52
2022-12-12T16:09:06.767Z,19.35
2022-12-12T16:11:39.342Z,20.38
2022-12-12T16:16:52.955Z,19.85
2022-12-12T16:19:33.592Z,18.95
2022-12-12T16:22:20.280Z,18.42
2022-12-12T16:24:52.685Z,18.70
2022-12-12T16:27:19.974Z,19.38
2022-12-12T16:29:47.025Z,19.27
2022-12-12T16:32:17.192Z,20.58
2022-12-12T16:34:44.745Z,19.15
2022-12-12T16:37:16.991Z,19.73
2022-12-12T16:39:44.386Z,18.67
2022-12-12T16:42:16.960Z,20.92
2022-12-12T16:47:19.483Z,20.58
2022-12-12T16:49:46.733Z,22.90
2022-12-12T16:52:15.046Z,21.50
2022-12-12T16:54:42.296Z,21.77
2022-12-12T16:57:08.965Z,21.90
2022-12-12T16:59:35.987Z,20.35
2022-12-12T17:02:02.835Z,20.55
2022-12-12T17:04:29.609Z,19.70
2022-12-12T17:06:57.363Z,20.10
2022-12-12T17:09:29.604Z,22.00
2022-12-12T17:11:56.802Z,20.15
2022-12-12T17:14:24.897Z,20.75
2022-12-12T17:16:53.515Z,19.90
2022-12-12T17:19:20.440Z,20.92
2022-12-12T17:21:47.258Z,21.35
2022-12-12T17:24:15.114Z,19.85
2022-12-12T17:26:41.789Z,20.77
2022-12-12T17:29:09.216Z,20.80
2022-12-12T17:31:36.085Z,21.20
2022-12-12T17:34:03.752Z,18.77
2022-12-12T17:36:30.783Z,19.70
2022-12-12T17:38:57.932Z,21.45
2022-12-12T17:41:24.857Z,20.00
2022-12-12T17:43:55.428Z,21.52
2022-12-12T17:46:23.336Z,20.83
2022-12-12T17:48:52.295Z,20.95
2022-12-12T17:51:21.963Z,20.73
2022-12-12T17:53:50.985Z,20.15
2022-12-12T17:56:24.278Z,20.90
2022-12-12T17:58:50.973Z,20.33
2022-12-12T18:01:22.537Z,20.98
2022-12-12T18:03:49.889Z,23.52
2022-12-12T18:06:18.341Z,22.17
2022-12-12T18:08:45.642Z,22.15
2022-12-12T18:11:15.870Z,22.05
2022-12-12T18:13:43.446Z,21.35
2022-12-12T18:16:12.759Z,23.30
2022-12-12T18:18:40.596Z,23.17
2022-12-12T18:21:12.885Z,28.55
2022-12-12T18:23:42.665Z,26.05
2022-12-12T18:26:17.247Z,26.55
2022-12-12T18:28:49.323Z,24.77
2022-12-12T18:31:16.149Z,26.83
2022-12-12T18:33:43.011Z,28.17
2022-12-12T18:36:18.950Z,26.85
2022-12-12T18:38:47.906Z,25.00
2022-12-12T18:41:15.730Z,24.48
2022-12-12T18:43:43.010Z,25.27
2022-12-12T18:46:15.481Z,25.27
2022-12-12T18:48:44.929Z,24.40
2022-12-12T18:51:23.253Z,24.65
2022-12-12T18:53:51.132Z,25.02
2022-12-12T18:56:26.687Z,23.55
2022-12-12T18:58:54.364Z,23.92
2022-12-12T19:01:23.784Z,22.35
2022-12-12T19:03:52.745Z,23.27
2022-12-12T19:06:22.606Z,24.27
2022-12-12T19:08:49.841Z,24.08
2022-12-12T19:11:16.905Z,25.30
2022-12-12T19:13:43.580Z,27.20
2022-12-12T19:16:14.966Z,25.80
2022-12-12T19:18:42.020Z,24.27
2022-12-12T19:21:23.654Z,27.00
2022-12-12T19:23:51.385Z,26.25
2022-12-12T19:26:27.881Z,25.20
2022-12-12T19:28:59.966Z,24.85
2022-12-12T19:31:27.350Z,23.67
2022-12-12T19:33:54.084Z,24.73
2022-12-12T19:36:23.889Z,22.95
2022-12-12T19:38:51.233Z,22.55
2022-12-12T19:41:20.191Z,24.25
2022-12-12T19:43:47.879Z,26.08
2022-12-12T19:46:19.315Z,24.75
2022-12-12T19:48:46.341Z,25.58
2022-12-12T19:51:19.229Z,24.08
2022-12-12T19:53:52.055Z,24.98
2022-12-12T19:56:22.049Z,23.85
2022-12-12T19:58:50.227Z,25.83
2022-12-12T20:01:20.496Z,25.77
2022-12-12T20:03:52.057Z,26.40
2022-12-12T20:08:47.750Z,23.48
2022-12-12T20:11:17.571Z,23.38
2022-12-12T20:13:55.064Z,27.73
2022-12-12T20:16:25.710Z,25.65
2022-12-12T20:18:53.255Z,26.23
2022-12-12T20:21:59.356Z,25.20
2022-12-12T20:24:11.821Z,24.90
2022-12-12T20:26:40.016Z,26.45
2022-12-12T20:29:08.060Z,24.95
2022-12-12T20:31:37.939Z,24.35
2022-12-12T20:34:04.769Z,23.98
2022-12-12T20:36:34.274Z,24.25
2022-12-12T20:39:04.537Z,22.85
2022-12-12T20:41:39.345Z,24.05
2022-12-12T20:44:07.204Z,25.85
2022-12-12T20:46:37.656Z,25.35
2022-12-12T20:49:09.358Z,25.13
2022-12-12T20:54:24.722Z,25.25
2022-12-12T20:56:52.333Z,26.15
2022-12-12T20:59:19.295Z,25.88
2022-12-12T21:01:47.136Z,25.13
2022-12-12T21:04:14.499Z,26.67
2022-12-12T21:06:48.406Z,28.13
2022-12-12T21:09:22.578Z,25.98
2022-12-12T21:11:52.134Z,24.00
2022-12-12T21:14:19.012Z,24.77
2022-12-12T21:16:46.282Z,26.02
2022-12-12T21:19:14.817Z,24.85
2022-12-12T21:21:43.122Z,26.38
2022-12-12T21:24:14.786Z,26.52
2022-12-12T21:26:41.720Z,28.07
2022-12-12T21:29:08.684Z,26.63
2022-12-12T21:31:38.729Z,27.90
2022-12-12T21:34:06.429Z,26.40
2022-12-12T21:36:33.560Z,25.67
2022-12-12T21:39:01.610Z,28.33
2022-12-12T21:41:28.726Z,25.77
2022-12-12T21:43:56.671Z,27.20
2022-12-12T21:46:25.242Z,27.33
2022-12-12T21:49:11.287Z,26.17
2022-12-12T21:51:41.451Z,25.38
2022-12-12T21:54:09.701Z,27.00
2022-12-12T21:56:36.775Z,26.77
2022-12-12T21:59:03.736Z,28.52
2022-12-12T22:01:31.966Z,29.02
2022-12-12T22:03:59.891Z,27.08
2022-12-12T22:06:29.586Z,27.15
2022-12-12T22:08:57.223Z,27.48
2022-12-12T22:11:40.949Z,28.00
2022-12-12T22:14:11.279Z,27.73
2022-12-12T22:16:38.524Z,25.65
2022-12-12T22:19:09.945Z,25.23
2022-12-12T22:21:36.955Z,25.83
2022-12-12T22:24:04.430Z,26.25
2022-12-12T22:26:39.712Z,27.40
2022-12-12T22:29:15.690Z,26.65
2022-12-12T22:31:43.011Z,28.83
2022-12-12T22:34:14.265Z,26.17
2022-12-12T22:36:41.436Z,25.77
2022-12-12T22:39:17.691Z,25.42
2022-12-12T22:41:44.618Z,25.83
2022-12-12T22:44:15.685Z,25.70
2022-12-12T22:46:47.129Z,27.08
2022-12-12T22:49:15.772Z,25.65
2022-12-12T22:51:43.602Z,26.40
2022-12-12T22:54:11.212Z,29.20
2022-12-12T22:56:39.401Z,25.88
2022-12-12T22:59:07.467Z,25.70
2022-12-12T23:01:35.147Z,26.65
2022-12-12T23:04:01.961Z,27.20
2022-12-12T23:06:31.605Z,26.38
2022-12-12T23:09:05.016Z,26.42
2022-12-12T23:11:32.835Z,26.17
2022-12-12T23:14:04.922Z,25.00
2022-12-12T23:16:34.329Z,23.85
2022-12-12T23:19:02.673Z,26.02
2022-12-12T23:21:29.425Z,26.63
2022-12-12T23:23:56.177Z,26.25
2022-12-12T23:26:25.597Z,27.77
2022-12-12T23:28:52.982Z,25.98
2022-12-12T23:31:22.666Z,25.98
2022-12-12T23:33:53.729Z,26.52
2022-12-12T23:36:20.727Z,27.30
2022-12-12T23:38:47.510Z,25.27
2022-12-12T23:41:16.342Z,23.95
2022-12-12T23:43:43.673Z,26.27
2022-12-12T23:46:28.073Z,26.30
2022-12-12T23:49:12.682Z,26.20
2022-12-12T23:51:42.013Z,27.10
2022-12-12T23:54:17.736Z,26.05
2022-12-12T23:56:44.956Z,26.27
2022-12-12T23:59:17.450Z,26.90
